createdAt,value
2023-10-30T00:03:12.597Z,96673.19
2023-10-30T00:08:14.196Z,96667.34
2023-10-30T00:13:15.691Z,96665.56
2023-10-30T00:18:17.330Z,96645.56
2023-10-30T00:23:18.886Z,96639.72
2023-10-30T00:28:20.377Z,96658.53
2023-10-30T00:33:21.923Z,96667.41
2023-10-30T00:38:23.503Z,96668.22
2023-10-30T00:43:24.967Z,96674.56
2023-10-30T00:48:26.617Z,96681.69
2023-10-30T00:53:28.723Z,96678.41
2023-10-30T00:58:30.206Z,96694.53
2023-10-30T01:03:31.958Z,96676.47
2023-10-30T01:08:33.821Z,96700.16
2023-10-30T01:13:37.338Z,96718.84
2023-10-30T01:18:39.019Z,96713.72
2023-10-30T01:23:40.873Z,96714.75
2023-10-30T01:28:42.639Z,96716.88
2023-10-30T01:33:44.298Z,96738.47
2023-10-30T01:38:45.834Z,96718.28
2023-10-30T01:43:47.299Z,96745.13
2023-10-30T01:48:49.867Z,96749.69
2023-10-30T01:53:52.305Z,96748.84
2023-10-30T01:58:53.764Z,96760.63
2023-10-30T02:03:56.733Z,96766.81
2023-10-30T02:08:58.504Z,96774.06
2023-10-30T02:14:00.037Z,96774.06
2023-10-30T02:19:01.592Z,96767.88
2023-10-30T02:24:07.855Z,96759.81
2023-10-30T02:29:10.688Z,96768.81
2023-10-30T02:34:14.011Z,96763.91
2023-10-30T02:39:15.589Z,96783.16
2023-10-30T02:44:17.115Z,96789.19
2023-10-30T02:49:18.647Z,96785.94
2023-10-30T02:54:20.236Z,96809.28
2023-10-30T02:59:21.788Z,96812.66
2023-10-30T03:04:24.702Z,96832.00
2023-10-30T03:09:31.346Z,96827.78
2023-10-30T03:14:32.949Z,96782.19
2023-10-30T03:19:34.481Z,96793.72
2023-10-30T03:24:36.058Z,96795.78
2023-10-30T03:29:37.918Z,96809.50
2023-10-30T03:34:40.482Z,96818.25
2023-10-30T03:39:42.027Z,96814.75
2023-10-30T03:44:43.540Z,96802.97
2023-10-30T03:49:45.053Z,96802.97
2023-10-30T03:54:46.791Z,96800.97
2023-10-30T03:59:48.580Z,96784.28
2023-10-30T04:04:50.244Z,96793.97
2023-10-30T04:09:52.494Z,96777.31
2023-10-30T04:14:54.015Z,96772.41
2023-10-30T04:19:55.562Z,96797.00
2023-10-30T04:24:57.193Z,96790.41
2023-10-30T04:29:58.848Z,96780.75
2023-10-30T04:35:00.342Z,96780.59
2023-10-30T04:40:01.847Z,96758.09
2023-10-30T04:45:03.745Z,96745.44
2023-10-30T04:50:05.709Z,96775.59
2023-10-30T04:55:07.678Z,96772.31
2023-10-30T05:00:09.797Z,96780.38
2023-10-30T05:05:11.322Z,96776.41
2023-10-30T05:10:13.273Z,96770.41
2023-10-30T05:15:14.799Z,96764.00
2023-10-30T05:20:16.528Z,96770.16
2023-10-30T05:25:21.158Z,96768.09
2023-10-30T05:30:24.969Z,96764.72
2023-10-30T05:35:26.476Z,96775.34
2023-10-30T05:40:28.041Z,96775.69
2023-10-30T05:45:29.706Z,96770.34
2023-10-30T05:50:31.279Z,96776.75
2023-10-30T05:55:32.825Z,96778.63
2023-10-30T06:00:34.411Z,96770.78
2023-10-30T06:05:36.321Z,96775.34
2023-10-30T06:10:40.892Z,96775.69
2023-10-30T06:15:42.593Z,96793.44
2023-10-30T06:20:45.822Z,96786.81
2023-10-30T06:25:47.339Z,96799.53
2023-10-30T06:30:48.868Z,96800.47
2023-10-30T06:35:56.934Z,96804.34
2023-10-30T06:40:58.452Z,96828.25
2023-10-30T06:46:03.841Z,96846.34
2023-10-30T06:51:05.908Z,96840.50
2023-10-30T06:56:07.974Z,96826.91
2023-10-30T07:01:09.634Z,96826.44
2023-10-30T07:06:12.197Z,96838.09
2023-10-30T07:11:13.717Z,96833.50
2023-10-30T07:16:15.375Z,96838.78
2023-10-30T07:21:16.919Z,96833.09
2023-10-30T07:26:19.574Z,96833.66
2023-10-30T07:31:21.229Z,96843.34
2023-10-30T07:36:22.796Z,96844.06
2023-10-30T07:41:24.491Z,96827.28
2023-10-30T07:46:26.351Z,96844.94
2023-10-30T07:51:28.062Z,96852.78
2023-10-30T07:56:29.790Z,96859.19
2023-10-30T08:01:31.392Z,96873.91
2023-10-30T08:06:34.326Z,96864.22
2023-10-30T08:11:36.488Z,96869.72
2023-10-30T08:16:38.212Z,96886.75
2023-10-30T08:21:39.888Z,96890.03
2023-10-30T08:26:41.607Z,96887.09
2023-10-30T08:31:43.451Z,96899.25
2023-10-30T08:36:45.389Z,96904.03
2023-10-30T08:41:47.015Z,96899.72
2023-10-30T08:46:48.566Z,96914.78
2023-10-30T08:52:00.678Z,96900.88
2023-10-30T08:57:16.584Z,96907.19
2023-10-30T09:02:19.046Z,96900.03
2023-10-30T09:07:21.280Z,96893.13
2023-10-30T09:12:23.184Z,96888.19
2023-10-30T09:17:24.798Z,96888.03
2023-10-30T09:22:27.006Z,96898.53
2023-10-30T09:27:28.686Z,96918.28
2023-10-30T09:32:30.294Z,96896.03
2023-10-30T09:37:31.811Z,96895.56
2023-10-30T09:42:35.664Z,96892.75
2023-10-30T09:47:37.387Z,96890.63
2023-10-30T09:52:39.028Z,96881.34
2023-10-30T09:57:41.878Z,96878.00
2023-10-30T10:02:44.571Z,96871.97
2023-10-30T10:07:47.057Z,96876.38
2023-10-30T10:12:55.218Z,96877.13
2023-10-30T10:17:57.409Z,96877.13
2023-10-30T10:22:58.973Z,96868.00
2023-10-30T10:28:01.269Z,96875.91
2023-10-30T10:33:03.248Z,96854.72
2023-10-30T10:38:14.314Z,96833.41
2023-10-30T10:43:21.005Z,96825.03
2023-10-30T10:48:24.752Z,96814.03
2023-10-30T10:53:28.957Z,96809.06
2023-10-30T10:58:41.269Z,96797.22
2023-10-30T11:03:43.084Z,96798.91
2023-10-30T11:09:11.262Z,96801.50
2023-10-30T11:14:21.510Z,96790.59
2023-10-30T11:19:23.605Z,96798.31
2023-10-30T11:24:45.120Z,96785.09
2023-10-30T11:30:12.752Z,96777.00
2023-10-30T11:35:14.827Z,96776.81
2023-10-30T11:40:16.540Z,96778.78
2023-10-30T11:45:19.877Z,96765.56
2023-10-30T11:50:26.252Z,96770.63
2023-10-30T11:55:30.383Z,96760.09
2023-10-30T12:00:32.382Z,96758.72
2023-10-30T12:05:33.990Z,96743.38
2023-10-30T12:10:36.855Z,96728.31
2023-10-30T12:15:39.104Z,96723.78
2023-10-30T12:20:40.595Z,96715.19
2023-10-30T12:25:42.307Z,96723.88
2023-10-30T12:30:44.440Z,96724.97
2023-10-30T12:35:56.793Z,96714.44
2023-10-30T12:40:58.583Z,96714.19
2023-10-30T12:46:00.124Z,96714.78
2023-10-30T12:51:02.151Z,96689.94
2023-10-30T12:56:03.781Z,96676.41
2023-10-30T13:06:10.136Z,96674.69
2023-10-30T13:11:12.400Z,96677.34
2023-10-30T13:16:14.009Z,96673.25
2023-10-30T13:21:16.345Z,96662.16
2023-10-30T13:26:18.944Z,96662.44
2023-10-30T13:31:20.437Z,96652.41
2023-10-30T13:36:22.368Z,96650.75
2023-10-30T13:41:24.108Z,96640.19
2023-10-30T13:46:25.769Z,96636.56
2023-10-30T13:51:27.306Z,96641.91
2023-10-30T13:56:28.912Z,96626.19
2023-10-30T14:01:30.550Z,96614.81
2023-10-30T14:06:32.150Z,96612.34
2023-10-30T14:11:33.694Z,96617.41
2023-10-30T14:16:36.114Z,96601.97
2023-10-30T14:21:37.837Z,96595.41
2023-10-30T14:26:39.883Z,96579.94
2023-10-30T14:31:41.509Z,96578.50
2023-10-30T14:36:43.169Z,96581.34
2023-10-30T14:41:44.735Z,96579.13
2023-10-30T14:46:46.294Z,96585.22
2023-10-30T14:51:48.444Z,96583.78
2023-10-30T14:56:51.312Z,96584.78
2023-10-30T15:01:55.189Z,96566.63
2023-10-30T15:06:56.812Z,96565.75
2023-10-30T15:11:58.385Z,96554.38
2023-10-30T15:16:59.990Z,96544.53
2023-10-30T15:22:01.607Z,96537.44
2023-10-30T15:27:04.637Z,96520.91
2023-10-30T15:32:06.491Z,96521.09
2023-10-30T15:37:08.122Z,96515.63
2023-10-30T15:42:09.804Z,96516.63
2023-10-30T15:47:24.150Z,96520.06
2023-10-30T15:57:33.615Z,96495.69
2023-10-30T16:02:35.552Z,96501.84
2023-10-30T16:07:38.007Z,96501.75
2023-10-30T16:12:39.608Z,96506.03
2023-10-30T16:17:41.234Z,96496.81
2023-10-30T16:22:43.006Z,96493.00
2023-10-30T16:27:45.445Z,96479.00
2023-10-30T16:32:47.034Z,96471.16
2023-10-30T16:37:51.453Z,96460.38
2023-10-30T16:42:52.984Z,96461.19
2023-10-30T16:47:54.805Z,96463.34
2023-10-30T16:52:56.389Z,96459.84
2023-10-30T16:57:58.210Z,96429.72
2023-10-30T17:03:01.048Z,96448.06
2023-10-30T17:08:03.797Z,96436.56
2023-10-30T17:13:08.839Z,96446.00
2023-10-30T17:18:10.419Z,96436.88
2023-10-30T17:23:11.967Z,96415.09
2023-10-30T17:28:13.869Z,96383.31
2023-10-30T17:33:15.404Z,96394.00
2023-10-30T17:38:17.074Z,96378.28
2023-10-30T17:43:18.628Z,96401.16
2023-10-30T17:48:20.176Z,96364.22
2023-10-30T17:53:21.718Z,96370.13
2023-10-30T17:58:23.331Z,96323.50
2023-10-30T18:03:24.989Z,96312.94
2023-10-30T18:08:26.536Z,96299.44
2023-10-30T18:13:28.046Z,96297.22
2023-10-30T18:18:29.706Z,96265.94
2023-10-30T18:23:32.825Z,96258.63
2023-10-30T18:28:34.369Z,96254.59
2023-10-30T18:33:35.916Z,96244.84
2023-10-30T18:38:37.491Z,96230.81
2023-10-30T18:43:39.022Z,96230.31
2023-10-30T18:48:41.619Z,96223.63
2023-10-30T18:53:43.972Z,96222.84
2023-10-30T18:58:45.594Z,96216.63
2023-10-30T19:03:48.177Z,96229.25
2023-10-30T19:08:51.421Z,96214.19
2023-10-30T19:13:54.452Z,96198.31
2023-10-30T19:18:56.620Z,96176.56
2023-10-30T19:23:58.097Z,96154.78
2023-10-30T19:28:59.696Z,96158.31
2023-10-30T19:34:01.271Z,96153.75
2023-10-30T19:39:03.061Z,96145.41
2023-10-30T19:44:04.921Z,96134.66
2023-10-30T19:49:06.659Z,96131.97
2023-10-30T19:54:08.215Z,96131.97
2023-10-30T19:59:09.671Z,96114.81
2023-10-30T20:04:11.259Z,96122.59
2023-10-30T20:09:14.199Z,96123.16
2023-10-30T20:14:15.762Z,96146.06
2023-10-30T20:19:17.279Z,96117.53
2023-10-30T20:24:18.848Z,96132.34
2023-10-30T20:29:21.440Z,96122.38
2023-10-30T20:34:22.960Z,96104.66
2023-10-30T20:39:26.074Z,96083.16
2023-10-30T20:44:27.639Z,96069.69
2023-10-30T20:49:29.219Z,96050.09
2023-10-30T20:54:30.818Z,96054.66
2023-10-30T20:59:32.434Z,96054.66
2023-10-30T21:04:34.059Z,96033.16
2023-10-30T21:09:37.210Z,96016.19
2023-10-30T21:14:38.745Z,96004.09
2023-10-30T21:19:40.572Z,95992.84
2023-10-30T21:24:42.324Z,95990.72
2023-10-30T21:29:43.977Z,95985.34
2023-10-30T21:34:45.519Z,95981.56
2023-10-30T21:39:47.083Z,95986.41
2023-10-30T21:44:49.106Z,95981.56
2023-10-30T21:49:50.907Z,95986.94
2023-10-30T21:54:52.784Z,95980.25
2023-10-30T21:59:54.371Z,95970.31
2023-10-30T22:04:56.644Z,95957.94
2023-10-30T22:09:58.159Z,95947.97
2023-10-30T22:15:00.845Z,95942.03
2023-10-30T22:20:02.454Z,95933.19
2023-10-30T22:25:04.489Z,95942.88
2023-10-30T22:30:09.702Z,95935.88
2023-10-30T22:35:11.480Z,95935.34
2023-10-30T22:40:13.543Z,95936.38
2023-10-30T22:45:15.170Z,95958.16
2023-10-30T22:50:16.884Z,95963.25
2023-10-30T22:55:18.514Z,95967.50
2023-10-30T23:00:23.872Z,95984.16
2023-10-30T23:05:25.422Z,95964.81
2023-10-30T23:10:27.744Z,95924.44
2023-10-30T23:15:29.221Z,95913.13
2023-10-30T23:20:30.868Z,95917.41
2023-10-30T23:25:32.535Z,95917.69
2023-10-30T23:30:34.083Z,95911.47
2023-10-30T23:35:35.648Z,95896.69
2023-10-30T23:40:37.457Z,95899.59
2023-10-30T23:45:39.007Z,95885.38
2023-10-30T23:50:40.528Z,95902.81
2023-10-30T23:55:42.269Z,95887.75
